createdAt,value
2018-05-13T00:00:22.173Z,58.70
2018-05-13T00:02:50.348Z,59.09
2018-05-13T00:05:18.573Z,59.05
2018-05-13T00:07:46.740Z,59.35
2018-05-13T00:10:14.915Z,59.52
2018-05-13T00:12:43.134Z,59.64
2018-05-13T00:15:11.317Z,59.75
2018-05-13T00:17:39.491Z,60.00
2018-05-13T00:20:07.691Z,60.23
2018-05-13T00:22:35.889Z,60.27
2018-05-13T00:25:04.074Z,60.39
2018-05-13T00:27:32.292Z,60.42
2018-05-13T00:30:00.475Z,60.36
2018-05-13T00:32:28.664Z,60.45
2018-05-13T00:34:56.908Z,60.44
2018-05-13T00:37:25.167Z,60.52
2018-05-13T00:39:53.368Z,60.48
2018-05-13T00:42:21.515Z,60.58
2018-05-13T00:44:49.717Z,60.84
2018-05-13T00:47:17.948Z,60.97
2018-05-13T00:49:46.138Z,61.07
2018-05-13T00:52:14.354Z,60.85
2018-05-13T00:54:55.320Z,61.36
2018-05-13T00:57:23.514Z,61.58
2018-05-13T00:59:51.683Z,61.51
2018-05-13T01:02:19.891Z,62.48
2018-05-13T01:04:48.102Z,62.03
2018-05-13T01:07:16.323Z,61.63
2018-05-13T01:09:44.499Z,62.33
2018-05-13T01:12:12.674Z,62.13
2018-05-13T01:14:40.897Z,62.68
2018-05-13T01:17:09.045Z,62.60
2018-05-13T01:19:37.228Z,62.76
2018-05-13T01:22:05.440Z,63.88
2018-05-13T01:24:33.617Z,64.28
2018-05-13T01:27:01.829Z,64.25
2018-05-13T01:29:30.025Z,64.59
2018-05-13T01:31:58.212Z,64.20
2018-05-13T01:34:26.396Z,64.28
2018-05-13T01:36:54.560Z,64.28
2018-05-13T01:39:22.756Z,64.88
2018-05-13T01:41:50.951Z,64.69
2018-05-13T01:44:19.104Z,64.51
2018-05-13T01:46:47.297Z,64.74
2018-05-13T01:49:15.458Z,64.33
2018-05-13T01:51:43.658Z,64.51
2018-05-13T01:54:11.877Z,64.29
2018-05-13T01:56:40.098Z,64.54
2018-05-13T01:59:08.264Z,64.62
2018-05-13T02:01:36.443Z,64.53
2018-05-13T02:04:04.679Z,64.28
2018-05-13T02:06:32.845Z,64.46
2018-05-13T02:09:01.045Z,64.48
2018-05-13T02:11:29.292Z,64.72
2018-05-13T02:13:57.424Z,64.48
2018-05-13T02:16:25.603Z,64.56
2018-05-13T02:18:53.776Z,64.27
2018-05-13T02:21:21.973Z,64.46
2018-05-13T02:23:50.205Z,64.68
2018-05-13T02:26:18.390Z,64.69
2018-05-13T02:28:46.568Z,64.59
2018-05-13T02:31:14.753Z,64.34
2018-05-13T02:33:42.934Z,64.40
2018-05-13T02:36:11.159Z,64.29
2018-05-13T02:38:39.370Z,64.52
2018-05-13T02:41:07.566Z,64.57
2018-05-13T02:43:35.765Z,64.74
2018-05-13T02:46:03.975Z,64.94
2018-05-13T02:48:32.151Z,65.00
2018-05-13T02:51:00.333Z,65.04
2018-05-13T02:53:28.552Z,65.16
2018-05-13T02:55:56.772Z,65.23
2018-05-13T02:58:24.961Z,65.08
2018-05-13T03:00:53.114Z,65.23
2018-05-13T03:03:21.313Z,65.01
2018-05-13T03:05:49.527Z,64.99
2018-05-13T03:08:17.749Z,64.79
2018-05-13T03:10:45.921Z,64.71
2018-05-13T03:13:14.144Z,64.60
2018-05-13T03:15:42.296Z,64.41
2018-05-13T03:18:10.467Z,64.52
2018-05-13T03:20:38.664Z,64.52
2018-05-13T03:23:06.868Z,64.38
2018-05-13T03:25:35.067Z,64.36
2018-05-13T03:28:03.287Z,64.44
2018-05-13T03:30:31.473Z,64.58
2018-05-13T03:32:59.667Z,64.83
2018-05-13T03:35:27.851Z,64.92
2018-05-13T03:37:56.055Z,64.76
2018-05-13T03:40:24.254Z,64.77
2018-05-13T03:42:52.459Z,64.68
2018-05-13T03:45:20.634Z,64.55
2018-05-13T03:47:48.841Z,64.38
2018-05-13T03:50:17.022Z,64.55
2018-05-13T03:52:45.208Z,64.17
2018-05-13T03:55:13.374Z,64.39
2018-05-13T03:57:41.573Z,64.49
2018-05-13T04:00:09.755Z,64.33
2018-05-13T04:02:37.957Z,64.49
2018-05-13T04:05:06.158Z,64.21
2018-05-13T04:07:43.127Z,64.31
2018-05-13T04:11:01.493Z,64.14
2018-05-13T04:14:29.482Z,64.22
2018-05-13T04:16:57.669Z,64.42
2018-05-13T04:19:25.849Z,64.42
2018-05-13T04:21:54.063Z,64.41
2018-05-13T04:24:22.226Z,64.44
2018-05-13T04:26:50.425Z,64.26
2018-05-13T04:29:18.586Z,64.34
2018-05-13T04:31:46.790Z,64.42
2018-05-13T04:34:15.218Z,64.23
2018-05-13T04:36:43.401Z,64.23
2018-05-13T04:39:11.591Z,64.18
2018-05-13T04:41:39.813Z,64.23
2018-05-13T04:44:07.977Z,64.37
2018-05-13T04:46:36.161Z,64.45
2018-05-13T04:49:04.347Z,64.64
2018-05-13T04:51:32.525Z,64.61
2018-05-13T04:54:00.720Z,64.50
2018-05-13T04:56:28.956Z,64.88
2018-05-13T04:58:57.109Z,65.11
2018-05-13T05:01:25.288Z,64.98
2018-05-13T05:03:53.444Z,64.92
2018-05-13T05:06:21.653Z,64.84
2018-05-13T05:08:49.852Z,64.75
2018-05-13T05:11:18.033Z,64.66
2018-05-13T05:13:46.213Z,64.68
2018-05-13T05:16:14.404Z,64.47
2018-05-13T05:18:42.582Z,64.50
2018-05-13T05:21:10.782Z,64.44
2018-05-13T05:23:39.148Z,64.50
2018-05-13T05:26:07.346Z,64.03
2018-05-13T05:28:35.522Z,63.81
2018-05-13T05:31:03.709Z,63.62
2018-05-13T05:33:31.899Z,63.88
2018-05-13T05:36:00.094Z,63.83
2018-05-13T05:38:28.289Z,63.56
2018-05-13T05:40:56.500Z,63.17
2018-05-13T05:43:24.689Z,63.26
2018-05-13T05:45:52.867Z,63.28
2018-05-13T05:48:21.133Z,63.05
2018-05-13T05:50:49.227Z,62.31
2018-05-13T05:53:17.402Z,61.95
2018-05-13T05:55:45.564Z,61.92
2018-05-13T05:58:13.764Z,61.68
2018-05-13T06:00:41.929Z,61.51
2018-05-13T06:03:10.183Z,60.34
2018-05-13T06:05:38.291Z,60.79
2018-05-13T06:08:06.481Z,59.48
2018-05-13T06:10:34.624Z,58.93
2018-05-13T06:13:02.823Z,57.66
2018-05-13T06:15:31.001Z,57.68
2018-05-13T06:17:59.240Z,58.42
2018-05-13T06:20:27.403Z,58.34
2018-05-13T06:22:55.569Z,58.55
2018-05-13T06:25:23.745Z,58.40
2018-05-13T06:27:51.931Z,59.68
2018-05-13T06:30:20.147Z,60.57
2018-05-13T06:32:48.311Z,60.84
2018-05-13T06:35:16.485Z,61.34
2018-05-13T06:37:44.721Z,60.71
2018-05-13T06:40:12.902Z,60.03
2018-05-13T06:42:41.086Z,60.40
2018-05-13T06:45:09.341Z,59.48
2018-05-13T06:47:37.434Z,59.78
2018-05-13T06:50:05.601Z,59.38
2018-05-13T06:52:33.797Z,59.30
2018-05-13T06:55:02.012Z,60.39
2018-05-13T06:57:30.234Z,60.01
2018-05-13T06:59:58.391Z,58.79
2018-05-13T07:02:26.535Z,59.58
2018-05-13T07:04:54.742Z,59.74
2018-05-13T07:07:22.924Z,59.24
2018-05-13T07:09:51.109Z,58.09
2018-05-13T07:12:19.318Z,58.16
2018-05-13T07:14:47.525Z,58.05
2018-05-13T07:17:15.717Z,54.47
2018-05-13T07:19:43.917Z,55.38
2018-05-13T07:22:12.117Z,54.63
2018-05-13T07:24:40.324Z,54.17
2018-05-13T07:27:08.499Z,53.52
2018-05-13T07:29:36.668Z,53.64
2018-05-13T07:32:04.839Z,53.81
2018-05-13T07:34:33.049Z,53.95
2018-05-13T07:37:01.220Z,53.46
2018-05-13T07:39:29.396Z,51.77
2018-05-13T07:41:57.550Z,51.69
2018-05-13T07:44:25.731Z,50.59
2018-05-13T07:46:54.206Z,50.93
2018-05-13T07:49:22.407Z,51.98
2018-05-13T07:51:50.584Z,51.96
2018-05-13T07:54:18.736Z,51.65
2018-05-13T07:56:46.925Z,51.67
2018-05-13T07:59:15.084Z,52.39
2018-05-13T08:01:43.347Z,51.81
2018-05-13T08:04:11.539Z,51.81
2018-05-13T08:06:39.720Z,52.28
2018-05-13T08:09:07.872Z,51.76
2018-05-13T08:11:36.069Z,52.35
2018-05-13T08:14:04.279Z,51.87
2018-05-13T08:16:32.400Z,51.63
2018-05-13T08:19:00.590Z,51.54
2018-05-13T08:21:28.789Z,52.15
2018-05-13T08:23:57.005Z,50.86
2018-05-13T08:26:25.257Z,50.65
2018-05-13T08:28:53.371Z,50.28
2018-05-13T08:31:21.556Z,49.63
2018-05-13T08:33:49.807Z,48.54
2018-05-13T08:36:17.996Z,47.56
2018-05-13T08:38:46.184Z,45.87
2018-05-13T08:41:14.344Z,44.10
2018-05-13T08:43:42.542Z,41.83
2018-05-13T08:46:10.717Z,41.22
2018-05-13T08:48:38.955Z,39.38
2018-05-13T08:51:07.124Z,38.29
2018-05-13T08:53:35.298Z,37.79
2018-05-13T08:56:03.493Z,38.89
2018-05-13T08:58:31.657Z,39.92
2018-05-13T09:00:59.872Z,41.12
2018-05-13T09:03:28.046Z,42.14
2018-05-13T09:05:56.200Z,42.91
2018-05-13T09:08:24.400Z,44.88
2018-05-13T09:10:52.541Z,45.45
2018-05-13T09:13:20.722Z,46.68
2018-05-13T09:15:48.886Z,47.71
2018-05-13T09:18:17.061Z,47.79
2018-05-13T09:20:45.235Z,47.58
2018-05-13T09:23:13.433Z,48.83
2018-05-13T09:25:41.593Z,48.40
2018-05-13T09:28:09.812Z,48.71
2018-05-13T09:30:37.967Z,47.69
2018-05-13T09:33:06.237Z,44.48
2018-05-13T09:35:34.345Z,41.14
2018-05-13T09:38:02.542Z,39.33
2018-05-13T09:40:30.699Z,37.51
2018-05-13T09:42:58.872Z,33.63
2018-05-13T09:45:27.047Z,32.07
2018-05-13T09:47:55.268Z,30.01
2018-05-13T09:50:23.442Z,31.17
2018-05-13T09:52:51.676Z,33.22
2018-05-13T09:55:19.807Z,34.30
2018-05-13T09:57:48.016Z,36.40
2018-05-13T10:00:16.172Z,36.55
2018-05-13T10:02:44.372Z,37.44
2018-05-13T10:05:12.570Z,39.15
2018-05-13T10:07:40.759Z,40.06
2018-05-13T10:10:08.986Z,41.76
2018-05-13T10:12:37.159Z,42.97
2018-05-13T10:15:05.381Z,43.63
2018-05-13T10:17:33.581Z,44.67
2018-05-13T10:20:01.797Z,45.27
2018-05-13T10:22:29.981Z,46.25
2018-05-13T10:24:58.151Z,45.52
2018-05-13T10:27:26.365Z,45.62
2018-05-13T10:29:54.574Z,45.80
2018-05-13T10:32:22.758Z,46.79
2018-05-13T10:34:50.931Z,46.68
2018-05-13T10:37:19.122Z,47.74
2018-05-13T10:39:47.365Z,48.98
2018-05-13T10:42:15.505Z,49.94
2018-05-13T10:44:43.718Z,51.33
2018-05-13T10:47:11.996Z,53.17
2018-05-13T10:49:40.185Z,54.55
2018-05-13T10:52:08.350Z,53.50
2018-05-13T10:54:36.532Z,54.25
2018-05-13T10:57:04.780Z,54.95
2018-05-13T10:59:32.966Z,56.88
2018-05-13T11:02:01.136Z,58.01
2018-05-13T11:04:29.315Z,55.28
2018-05-13T11:06:57.472Z,60.18
2018-05-13T11:09:25.663Z,57.27
2018-05-13T11:11:53.834Z,58.40
2018-05-13T11:14:21.998Z,59.12
2018-05-13T11:16:50.189Z,58.86
2018-05-13T11:19:18.520Z,60.62
2018-05-13T11:21:46.696Z,59.09
2018-05-13T11:24:14.878Z,58.67
2018-05-13T11:26:43.044Z,61.07
2018-05-13T11:29:11.228Z,60.60
2018-05-13T11:31:39.421Z,59.79
2018-05-13T11:34:07.608Z,59.70
2018-05-13T11:36:35.803Z,59.46
2018-05-13T11:39:04.614Z,59.13
2018-05-13T11:41:32.813Z,58.97
2018-05-13T11:44:01.006Z,59.47
2018-05-13T11:46:29.180Z,60.19
2018-05-13T11:48:57.366Z,60.08
2018-05-13T11:51:25.535Z,60.19
2018-05-13T11:53:53.741Z,61.32
2018-05-13T11:56:21.936Z,59.70
2018-05-13T11:58:50.151Z,60.98
2018-05-13T12:01:18.326Z,62.39
2018-05-13T12:03:46.481Z,61.78
2018-05-13T12:06:14.703Z,61.92
2018-05-13T12:08:42.870Z,63.51
2018-05-13T12:11:11.049Z,62.21
2018-05-13T12:13:39.274Z,65.22
2018-05-13T12:16:07.493Z,64.36
2018-05-13T12:18:35.675Z,64.63
2018-05-13T12:21:03.926Z,64.57
2018-05-13T12:23:32.100Z,65.78
2018-05-13T12:26:00.293Z,64.96
2018-05-13T12:28:28.533Z,64.79
2018-05-13T12:30:56.700Z,65.25
2018-05-13T12:33:24.888Z,64.81
2018-05-13T12:35:53.086Z,64.60
2018-05-13T12:38:21.247Z,63.54
2018-05-13T12:40:49.464Z,63.56
2018-05-13T12:43:17.662Z,64.28
2018-05-13T12:45:45.849Z,63.30
2018-05-13T12:48:14.028Z,62.07
2018-05-13T12:50:42.204Z,63.39
2018-05-13T12:53:10.362Z,64.11
2018-05-13T12:55:38.544Z,64.79
2018-05-13T12:58:06.719Z,62.68
2018-05-13T13:00:34.909Z,63.05
2018-05-13T13:03:03.118Z,62.57
2018-05-13T13:05:31.308Z,63.01
2018-05-13T13:07:59.493Z,61.88
2018-05-13T13:10:27.672Z,61.68
2018-05-13T13:12:55.936Z,61.09
2018-05-13T13:15:24.046Z,61.11
2018-05-13T13:17:52.247Z,62.11
2018-05-13T13:20:20.423Z,61.77
2018-05-13T13:22:48.624Z,62.38
2018-05-13T13:25:16.816Z,62.37
2018-05-13T13:27:45.009Z,62.69
2018-05-13T13:30:13.197Z,63.04
2018-05-13T13:32:41.393Z,64.63
2018-05-13T13:35:09.551Z,63.56
2018-05-13T13:37:37.731Z,64.58
2018-05-13T13:40:05.907Z,63.93
2018-05-13T13:42:34.099Z,63.37
2018-05-13T13:45:02.274Z,63.44
2018-05-13T13:47:30.447Z,65.47
2018-05-13T13:49:58.635Z,64.46
2018-05-13T13:52:26.844Z,65.26
2018-05-13T13:54:55.028Z,65.64
2018-05-13T13:57:23.212Z,65.87
2018-05-13T13:59:51.424Z,65.57
2018-05-13T14:02:19.608Z,66.57
2018-05-13T14:04:47.797Z,66.89
2018-05-13T14:07:15.997Z,66.15
2018-05-13T14:09:44.222Z,66.80
2018-05-13T14:12:12.422Z,67.74
2018-05-13T14:14:40.624Z,68.46
2018-05-13T14:17:08.810Z,69.35
2018-05-13T14:19:36.997Z,70.37
2018-05-13T14:22:05.261Z,70.87
2018-05-13T14:24:33.445Z,70.69
2018-05-13T14:27:01.763Z,69.31
2018-05-13T14:29:29.859Z,68.97
2018-05-13T14:31:58.013Z,70.32
2018-05-13T14:34:26.239Z,71.35
2018-05-13T14:36:54.444Z,71.26
2018-05-13T14:39:22.640Z,71.32
2018-05-13T14:41:50.806Z,70.23
2018-05-13T14:44:19.006Z,69.94
2018-05-13T14:46:47.190Z,70.50
2018-05-13T14:49:15.415Z,70.01
2018-05-13T14:51:43.584Z,70.89
2018-05-13T14:54:11.803Z,72.22
2018-05-13T14:56:39.963Z,71.63
2018-05-13T14:59:08.244Z,71.38
2018-05-13T15:01:36.418Z,70.79
2018-05-13T15:04:04.601Z,69.74
2018-05-13T15:06:32.797Z,70.22
2018-05-13T15:09:00.990Z,69.75
2018-05-13T15:11:29.212Z,69.62
2018-05-13T15:13:57.401Z,69.80
2018-05-13T15:16:25.558Z,70.64
2018-05-13T15:18:53.992Z,70.46
2018-05-13T15:21:22.211Z,69.65
2018-05-13T15:23:50.386Z,70.05
2018-05-13T15:26:18.576Z,69.71
2018-05-13T15:28:46.733Z,70.37
2018-05-13T15:31:14.922Z,69.61
2018-05-13T15:33:43.119Z,69.44
2018-05-13T15:36:11.348Z,69.69
2018-05-13T15:38:39.697Z,69.28
2018-05-13T15:41:07.924Z,69.57
2018-05-13T15:43:36.191Z,69.63
2018-05-13T15:46:04.337Z,70.41
2018-05-13T15:48:32.549Z,71.09
2018-05-13T15:51:00.703Z,69.93
2018-05-13T15:53:28.913Z,68.80
2018-05-13T15:55:57.134Z,69.07
2018-05-13T15:58:25.332Z,69.09
2018-05-13T16:00:53.526Z,69.51
2018-05-13T16:03:21.730Z,68.92
2018-05-13T16:05:49.931Z,69.51
2018-05-13T16:08:18.132Z,68.97
2018-05-13T16:10:46.326Z,68.90
2018-05-13T16:13:14.499Z,69.03
2018-05-13T16:15:42.725Z,69.31
2018-05-13T16:18:10.920Z,69.18
2018-05-13T16:20:39.134Z,70.08
2018-05-13T16:23:07.363Z,70.08
2018-05-13T16:25:35.599Z,69.57
2018-05-13T16:28:03.786Z,69.74
2018-05-13T16:30:32.004Z,67.80
2018-05-13T16:33:00.219Z,68.97
2018-05-13T16:35:28.463Z,68.20
2018-05-13T16:37:56.679Z,68.66
2018-05-13T16:40:24.874Z,68.59
2018-05-13T16:42:53.072Z,68.21
2018-05-13T16:45:21.291Z,67.51
2018-05-13T16:47:49.470Z,68.08
2018-05-13T16:50:17.687Z,68.19
2018-05-13T16:52:45.865Z,68.60
2018-05-13T16:55:14.074Z,68.76
2018-05-13T16:57:42.317Z,68.11
2018-05-13T17:00:10.849Z,69.29
2018-05-13T17:02:39.028Z,68.76
2018-05-13T17:05:07.249Z,69.18
2018-05-13T17:07:35.465Z,68.75
2018-05-13T17:10:03.624Z,69.45
2018-05-13T17:12:31.824Z,69.72
2018-05-13T17:15:00.034Z,70.23
2018-05-13T17:17:28.263Z,70.49
2018-05-13T17:19:56.404Z,70.38
2018-05-13T17:22:24.611Z,69.73
2018-05-13T17:24:52.838Z,69.51
2018-05-13T17:27:21.026Z,69.81
2018-05-13T17:29:49.237Z,69.43
2018-05-13T17:32:17.384Z,69.71
2018-05-13T17:34:45.584Z,70.19
2018-05-13T17:37:13.857Z,70.22
2018-05-13T17:39:41.985Z,69.75
2018-05-13T17:42:10.176Z,69.54
2018-05-13T17:44:38.353Z,69.99
2018-05-13T17:47:06.538Z,70.77
2018-05-13T17:49:34.806Z,70.39
2018-05-13T17:52:02.892Z,72.12
2018-05-13T17:54:31.067Z,71.02
2018-05-13T17:56:59.265Z,70.51
2018-05-13T17:59:27.458Z,70.37
2018-05-13T18:01:55.673Z,70.79
2018-05-13T18:04:23.847Z,70.35
2018-05-13T18:06:52.079Z,70.06
2018-05-13T18:09:20.278Z,69.83
2018-05-13T18:11:48.469Z,70.59
2018-05-13T18:14:16.707Z,69.57
2018-05-13T18:16:44.906Z,70.84
2018-05-13T18:19:13.109Z,70.57
2018-05-13T18:21:41.405Z,71.26
2018-05-13T18:24:09.487Z,71.06
2018-05-13T18:26:37.710Z,70.76
2018-05-13T18:29:05.898Z,71.33
2018-05-13T18:31:34.088Z,71.69
2018-05-13T18:34:02.307Z,71.53
2018-05-13T18:36:30.490Z,70.97
2018-05-13T18:38:58.748Z,71.26
2018-05-13T18:41:26.880Z,71.56
2018-05-13T18:43:55.085Z,71.16
2018-05-13T18:46:23.248Z,71.52
2018-05-13T18:48:51.480Z,71.36
2018-05-13T18:51:19.754Z,71.85
2018-05-13T18:53:47.948Z,71.87
2018-05-13T18:56:16.132Z,72.32
2018-05-13T18:58:44.294Z,72.39
2018-05-13T19:01:12.512Z,72.17
2018-05-13T19:03:40.701Z,71.55
2018-05-13T19:06:08.902Z,71.92
2018-05-13T19:08:37.091Z,72.78
2018-05-13T19:11:05.269Z,72.04
2018-05-13T19:13:33.457Z,72.42
2018-05-13T19:16:01.650Z,71.98
2018-05-13T19:18:29.827Z,71.80
2018-05-13T19:20:58.005Z,71.69
2018-05-13T19:23:26.218Z,72.21
2018-05-13T19:25:54.385Z,71.74
2018-05-13T19:28:22.589Z,72.22
2018-05-13T19:30:50.809Z,72.18
2018-05-13T19:33:18.965Z,72.34
2018-05-13T19:35:47.177Z,72.27
2018-05-13T19:38:15.393Z,72.07
2018-05-13T19:40:43.559Z,72.20
2018-05-13T19:43:11.754Z,72.90
2018-05-13T19:45:39.973Z,72.73
2018-05-13T19:48:08.234Z,73.22
2018-05-13T19:50:36.361Z,72.38
2018-05-13T19:53:04.575Z,72.70
2018-05-13T19:55:32.775Z,72.59
2018-05-13T19:58:00.960Z,72.68
2018-05-13T20:00:29.175Z,72.42
2018-05-13T20:02:57.442Z,72.48
2018-05-13T20:05:25.548Z,72.61
2018-05-13T20:07:53.756Z,72.79
2018-05-13T20:10:21.940Z,73.13
2018-05-13T20:12:50.131Z,72.45
2018-05-13T20:15:18.319Z,72.60
2018-05-13T20:17:46.518Z,73.39
2018-05-13T20:20:14.694Z,72.87
2018-05-13T20:22:42.893Z,72.55
2018-05-13T20:25:11.067Z,72.61
2018-05-13T20:27:39.286Z,72.83
2018-05-13T20:30:07.481Z,72.37
2018-05-13T20:32:35.679Z,72.23
2018-05-13T20:35:03.888Z,72.13
2018-05-13T20:37:32.075Z,72.83
2018-05-13T20:40:00.299Z,72.75
2018-05-13T20:42:28.467Z,72.88
2018-05-13T20:44:56.690Z,72.54
2018-05-13T20:47:24.898Z,72.88
2018-05-13T20:49:53.072Z,71.94
2018-05-13T20:52:21.253Z,72.00
2018-05-13T20:54:49.449Z,72.41
2018-05-13T20:57:17.610Z,72.73
2018-05-13T20:59:45.829Z,72.62
2018-05-13T21:02:14.025Z,72.73
2018-05-13T21:04:42.220Z,72.24
2018-05-13T21:07:10.422Z,72.58
2018-05-13T21:09:38.595Z,72.50
2018-05-13T21:12:06.839Z,72.53
2018-05-13T21:14:35.067Z,72.87
2018-05-13T21:17:03.284Z,72.36
2018-05-13T21:19:31.513Z,72.40
2018-05-13T21:21:59.733Z,72.45
2018-05-13T21:24:27.946Z,72.75
2018-05-13T21:26:56.167Z,72.78
2018-05-13T21:29:24.343Z,72.90
2018-05-13T21:31:52.534Z,72.99
2018-05-13T21:34:20.737Z,73.15
2018-05-13T21:36:48.933Z,73.11
2018-05-13T21:39:17.137Z,73.23
2018-05-13T21:41:45.316Z,72.91
2018-05-13T21:44:13.523Z,72.67
2018-05-13T21:46:41.696Z,73.30
2018-05-13T21:49:09.875Z,72.82
2018-05-13T21:51:38.055Z,72.73
2018-05-13T21:54:06.282Z,73.16
2018-05-13T21:56:34.497Z,72.71
2018-05-13T21:59:02.670Z,72.84
2018-05-13T22:01:30.827Z,72.49
2018-05-13T22:03:59.022Z,72.81
2018-05-13T22:06:27.195Z,72.83
2018-05-13T22:08:58.441Z,72.64
2018-05-13T22:11:26.609Z,72.99
2018-05-13T22:13:54.782Z,72.82
2018-05-13T22:16:22.963Z,72.62
2018-05-13T22:18:51.187Z,72.63
2018-05-13T22:21:19.381Z,72.44
2018-05-13T22:23:47.556Z,72.88
2018-05-13T22:26:15.743Z,73.05
2018-05-13T22:28:43.908Z,72.74
2018-05-13T22:31:12.104Z,72.87
2018-05-13T22:33:40.287Z,72.55
2018-05-13T22:36:08.498Z,72.69
2018-05-13T22:38:36.690Z,72.66
2018-05-13T22:41:04.914Z,72.86
2018-05-13T22:43:33.107Z,73.24
2018-05-13T22:46:01.272Z,73.01
2018-05-13T22:48:29.445Z,72.92
2018-05-13T22:50:57.634Z,73.10
2018-05-13T22:53:25.857Z,74.02
2018-05-13T22:55:54.030Z,72.95
2018-05-13T22:58:22.224Z,73.38
2018-05-13T23:00:50.363Z,73.14
2018-05-13T23:03:18.569Z,73.27
2018-05-13T23:05:46.761Z,73.54
2018-05-13T23:08:14.943Z,73.21
2018-05-13T23:10:43.109Z,73.50
2018-05-13T23:13:11.337Z,73.51
2018-05-13T23:15:39.518Z,74.16
2018-05-13T23:18:07.682Z,74.70
2018-05-13T23:20:35.850Z,74.48
2018-05-13T23:23:04.048Z,74.00
2018-05-13T23:25:32.208Z,73.81
2018-05-13T23:28:00.403Z,73.60
2018-05-13T23:30:28.608Z,73.19
2018-05-13T23:32:56.722Z,73.79
2018-05-13T23:35:24.922Z,73.85
2018-05-13T23:37:53.095Z,73.73
2018-05-13T23:40:21.292Z,73.46
2018-05-13T23:42:49.466Z,74.12
2018-05-13T23:45:17.641Z,73.62
2018-05-13T23:47:45.818Z,73.78
2018-05-13T23:50:14.070Z,74.50
2018-05-13T23:52:42.319Z,73.75
2018-05-13T23:55:10.424Z,73.93
2018-05-13T23:57:38.609Z,73.57
